createdAt,value
2018-12-01T00:00:44.517Z,32.80
2018-12-01T00:03:12.748Z,35.83
2018-12-01T00:05:40.940Z,32.27
2018-12-01T00:08:09.096Z,31.83
2018-12-01T00:10:37.267Z,28.17
2018-12-01T00:13:05.425Z,33.63
2018-12-01T00:15:33.582Z,31.20
2018-12-01T00:18:01.733Z,29.93
2018-12-01T00:20:31.920Z,30.13
2018-12-01T00:23:00.052Z,35.50
2018-12-01T00:25:28.224Z,31.50
2018-12-01T00:27:56.354Z,33.47
2018-12-01T00:30:25.092Z,30.67
2018-12-01T00:32:54.417Z,28.40
2018-12-01T00:35:22.561Z,29.50
2018-12-01T00:37:51.052Z,31.20
2018-12-01T00:40:20.180Z,25.67
2018-12-01T00:42:48.336Z,28.57
2018-12-01T00:45:17.433Z,30.23
2018-12-01T00:47:47.811Z,26.67
2018-12-01T00:50:17.048Z,25.40
2018-12-01T00:52:45.729Z,26.87
2018-12-01T00:55:15.174Z,32.37
2018-12-01T00:57:43.359Z,25.90
2018-12-01T01:00:13.165Z,28.57
2018-12-01T01:02:41.327Z,26.90
2018-12-01T01:05:09.551Z,28.53
2018-12-01T01:07:37.788Z,28.60
2018-12-01T01:10:08.909Z,29.30
2018-12-01T01:12:37.059Z,29.37
2018-12-01T01:15:06.538Z,29.93
2018-12-01T01:17:35.030Z,26.13
2018-12-01T01:20:03.928Z,31.03
2018-12-01T01:22:32.082Z,32.33
2018-12-01T01:25:00.224Z,29.53
2018-12-01T01:27:28.365Z,27.90
2018-12-01T01:29:56.499Z,27.83
2018-12-01T01:32:24.636Z,32.00
2018-12-01T01:34:52.788Z,29.47
2018-12-01T01:37:20.919Z,25.63
2018-12-01T01:39:49.085Z,27.43
2018-12-01T01:42:17.209Z,29.47
2018-12-01T01:44:45.338Z,35.07
2018-12-01T01:47:13.711Z,29.40
2018-12-01T01:49:42.112Z,33.17
2018-12-01T01:52:10.549Z,33.17
2018-12-01T01:54:39.421Z,32.87
2018-12-01T01:57:07.648Z,29.80
2018-12-01T01:59:36.208Z,33.57
2018-12-01T02:02:04.575Z,38.23
2018-12-01T02:04:32.729Z,37.07
2018-12-01T02:07:00.867Z,37.47
2018-12-01T02:09:29.015Z,41.17
2018-12-01T02:11:57.156Z,36.10
2018-12-01T02:14:25.297Z,33.87
2018-12-01T02:16:53.442Z,37.27
2018-12-01T02:19:21.615Z,36.53
2018-12-01T02:21:49.754Z,33.90
2018-12-01T02:24:17.915Z,35.93
2018-12-01T02:26:46.073Z,37.00
2018-12-01T02:29:14.249Z,30.93
2018-12-01T02:31:42.641Z,29.23
2018-12-01T02:34:10.797Z,30.40
2018-12-01T02:36:38.962Z,34.27
2018-12-01T02:39:09.347Z,30.37
2018-12-01T02:41:38.105Z,37.40
2018-12-01T02:44:17.836Z,27.70
2018-12-01T02:47:00.562Z,33.33
2018-12-01T02:49:28.894Z,29.37
2018-12-01T02:51:57.241Z,32.30
2018-12-01T02:54:25.563Z,32.07
2018-12-01T02:56:53.905Z,28.67
2018-12-01T02:59:22.216Z,34.17
2018-12-01T03:01:50.553Z,30.17
2018-12-01T03:04:18.873Z,27.90
2018-12-01T03:06:47.211Z,37.47
2018-12-01T03:09:15.533Z,28.97
2018-12-01T03:11:43.874Z,30.13
2018-12-01T03:14:12.204Z,32.00
2018-12-01T03:16:40.553Z,28.50
2018-12-01T03:19:08.896Z,29.37
2018-12-01T03:21:37.228Z,27.20
2018-12-01T03:24:05.876Z,31.27
2018-12-01T03:26:34.311Z,31.87
2018-12-01T03:29:02.695Z,33.13
2018-12-01T03:31:31.030Z,33.00
2018-12-01T03:33:59.354Z,37.60
2018-12-01T03:36:27.754Z,35.47
2018-12-01T03:38:56.093Z,33.10
2018-12-01T03:41:24.451Z,31.57
2018-12-01T03:43:52.808Z,32.27
2018-12-01T03:46:21.124Z,30.83
2018-12-01T03:48:49.457Z,33.53
2018-12-01T03:51:17.781Z,31.17
2018-12-01T03:53:46.113Z,35.37
2018-12-01T03:56:14.503Z,31.87
2018-12-01T03:58:42.793Z,34.03
2018-12-01T04:01:11.104Z,31.33
2018-12-01T04:03:39.476Z,31.20
2018-12-01T04:06:07.796Z,32.50
2018-12-01T04:08:36.133Z,31.90
2018-12-01T04:11:04.493Z,31.67
2018-12-01T04:13:32.916Z,29.33
2018-12-01T04:16:01.292Z,27.17
2018-12-01T04:18:29.671Z,30.57
2018-12-01T04:20:57.987Z,24.53
2018-12-01T04:23:26.314Z,29.33
2018-12-01T04:25:54.684Z,31.03
2018-12-01T04:28:23.041Z,27.77
2018-12-01T04:30:51.393Z,25.67
2018-12-01T04:33:19.727Z,26.63
2018-12-01T04:35:48.062Z,27.63
2018-12-01T04:38:16.395Z,25.47
2018-12-01T04:40:44.715Z,28.57
2018-12-01T04:43:13.040Z,25.20
2018-12-01T04:45:41.390Z,25.37
2018-12-01T04:48:09.769Z,29.80
2018-12-01T04:50:38.096Z,29.70
2018-12-01T04:53:07.164Z,18.80
2018-12-01T04:55:35.497Z,27.90
2018-12-01T04:58:03.855Z,27.17
2018-12-01T05:00:32.188Z,30.80
2018-12-01T05:03:00.521Z,26.17
2018-12-01T05:05:28.878Z,29.90
2018-12-01T05:07:57.228Z,24.03
2018-12-01T05:10:25.566Z,24.20
2018-12-01T05:12:53.902Z,21.13
2018-12-01T05:15:22.241Z,24.03
2018-12-01T05:17:50.577Z,26.07
2018-12-01T05:20:21.937Z,26.23
2018-12-01T05:22:50.826Z,22.17
2018-12-01T05:25:19.174Z,24.90
2018-12-01T05:27:47.467Z,28.40
2018-12-01T05:30:22.352Z,23.17
2018-12-01T05:32:50.833Z,28.03
2018-12-01T05:35:21.145Z,23.37
2018-12-01T05:37:49.300Z,18.93
2018-12-01T05:40:17.506Z,26.63
2018-12-01T05:42:45.792Z,23.87
2018-12-01T05:45:19.583Z,20.97
2018-12-01T05:47:47.765Z,22.50
2018-12-01T05:50:20.973Z,22.83
2018-12-01T05:52:49.234Z,20.33
2018-12-01T05:55:17.374Z,22.10
2018-12-01T05:57:45.539Z,19.40
2018-12-01T06:00:14.902Z,21.60
2018-12-01T06:02:43.050Z,20.00
2018-12-01T06:05:11.586Z,18.57
2018-12-01T06:07:40.392Z,23.27
2018-12-01T06:10:16.642Z,20.23
2018-12-01T06:12:45.137Z,20.53
2018-12-01T06:15:14.233Z,20.13
2018-12-01T06:17:42.510Z,21.20
2018-12-01T06:20:11.801Z,19.83
2018-12-01T06:22:40.005Z,19.80
2018-12-01T06:25:10.190Z,22.07
2018-12-01T06:27:38.360Z,22.67
2018-12-01T06:30:12.572Z,21.20
2018-12-01T06:32:40.734Z,20.53
2018-12-01T06:35:09.208Z,20.97
2018-12-01T06:37:37.390Z,23.17
2018-12-01T06:40:08.332Z,21.53
2018-12-01T06:42:36.485Z,19.63
2018-12-01T06:45:06.202Z,22.73
2018-12-01T06:47:34.357Z,24.57
2018-12-01T06:50:02.484Z,18.60
2018-12-01T06:52:30.629Z,20.83
2018-12-01T06:54:58.764Z,24.17
2018-12-01T06:57:27.197Z,19.63
2018-12-01T06:59:55.385Z,22.27
2018-12-01T07:02:23.539Z,17.50
2018-12-01T07:04:51.691Z,21.77
2018-12-01T07:07:19.835Z,18.77
2018-12-01T07:09:48.316Z,16.57
2018-12-01T07:12:16.502Z,21.53
2018-12-01T07:14:44.698Z,19.83
2018-12-01T07:17:12.840Z,18.43
2018-12-01T07:19:40.981Z,23.10
2018-12-01T07:22:09.104Z,18.40
2018-12-01T07:24:37.473Z,18.83
2018-12-01T07:27:05.607Z,17.00
2018-12-01T07:29:34.145Z,25.17
2018-12-01T07:32:02.296Z,22.17
2018-12-01T07:34:30.489Z,14.90
2018-12-01T07:36:58.981Z,16.27
2018-12-01T07:39:27.119Z,19.73
2018-12-01T07:41:55.241Z,15.77
2018-12-01T07:44:23.409Z,18.33
2018-12-01T07:46:51.560Z,21.37
2018-12-01T07:49:19.712Z,19.03
2018-12-01T07:51:47.842Z,17.93
2018-12-01T07:54:15.989Z,16.77
2018-12-01T07:56:44.129Z,17.07
2018-12-01T07:59:12.589Z,15.63
2018-12-01T08:01:40.719Z,18.43
2018-12-01T08:04:08.877Z,17.87
2018-12-01T08:06:37.425Z,19.27
2018-12-01T08:09:07.552Z,18.27
2018-12-01T08:11:35.973Z,14.33
2018-12-01T08:14:04.333Z,13.13
2018-12-01T08:16:32.532Z,16.43
2018-12-01T08:19:00.697Z,18.43
2018-12-01T08:21:28.849Z,15.23
2018-12-01T08:23:56.997Z,16.73
2018-12-01T08:26:25.225Z,10.53
2018-12-01T08:28:53.714Z,14.83
2018-12-01T08:31:21.933Z,16.73
2018-12-01T08:33:50.365Z,14.93
2018-12-01T08:36:18.744Z,13.60
2018-12-01T08:38:47.444Z,16.77
2018-12-01T08:41:15.797Z,12.27
2018-12-01T08:43:45.147Z,15.83
2018-12-01T08:46:12.445Z,13.70
2018-12-01T08:48:40.749Z,15.53
2018-12-01T08:51:09.599Z,13.27
2018-12-01T08:53:37.939Z,11.67
2018-12-01T08:56:06.320Z,13.77
2018-12-01T08:58:34.647Z,16.87
2018-12-01T09:01:03.054Z,13.23
2018-12-01T09:03:31.387Z,15.07
2018-12-01T09:05:59.718Z,11.83
2018-12-01T09:08:29.129Z,10.70
2018-12-01T09:10:57.324Z,9.03
2018-12-01T09:13:25.461Z,12.37
2018-12-01T09:15:53.645Z,9.67
2018-12-01T09:18:21.860Z,8.00
2018-12-01T09:20:50.014Z,9.67
2018-12-01T09:23:18.732Z,14.97
2018-12-01T09:25:46.882Z,11.33
2018-12-01T09:28:15.041Z,10.70
2018-12-01T09:30:43.189Z,13.20
2018-12-01T09:33:11.376Z,11.67
2018-12-01T09:35:39.540Z,13.23
2018-12-01T09:38:07.714Z,12.00
2018-12-01T09:40:36.038Z,15.17
2018-12-01T09:43:04.295Z,13.50
2018-12-01T09:45:32.441Z,11.30
2018-12-01T09:48:00.598Z,11.93
2018-12-01T09:50:28.740Z,9.27
2018-12-01T09:52:58.584Z,7.90
2018-12-01T09:55:28.886Z,15.00
2018-12-01T09:57:57.681Z,10.10
2018-12-01T10:00:28.005Z,12.03
2018-12-01T10:02:56.615Z,10.87
2018-12-01T10:05:24.779Z,12.43
2018-12-01T10:07:59.499Z,7.80
2018-12-01T10:10:28.192Z,9.43
2018-12-01T10:12:57.167Z,11.57
2018-12-01T10:15:31.076Z,12.10
2018-12-01T10:17:59.287Z,7.97
2018-12-01T10:20:28.852Z,11.77
2018-12-01T10:22:57.313Z,9.23
2018-12-01T10:25:25.466Z,10.53
2018-12-01T10:27:53.622Z,8.00
2018-12-01T10:30:22.128Z,11.43
2018-12-01T10:32:51.128Z,9.00
2018-12-01T10:35:22.389Z,9.10
2018-12-01T10:38:24.333Z,9.17
2018-12-01T10:40:52.480Z,12.33
2018-12-01T10:43:21.176Z,9.87
2018-12-01T10:45:49.319Z,8.63
2018-12-01T10:48:17.901Z,10.20
2018-12-01T10:50:46.176Z,8.17
2018-12-01T10:53:14.337Z,9.60
2018-12-01T10:55:42.493Z,10.50
2018-12-01T10:58:15.049Z,11.70
2018-12-01T11:00:49.664Z,7.30
2018-12-01T11:03:23.548Z,10.93
2018-12-01T11:05:52.664Z,10.30
2018-12-01T11:08:20.875Z,7.70
2018-12-01T11:10:55.048Z,9.03
2018-12-01T11:13:17.744Z,8.83
2018-12-01T11:15:45.923Z,8.77
2018-12-01T11:18:14.069Z,9.23
2018-12-01T11:20:42.246Z,7.07
2018-12-01T11:23:10.381Z,7.73
2018-12-01T11:25:39.181Z,8.17
2018-12-01T11:28:07.377Z,6.57
2018-12-01T11:30:37.365Z,7.90
2018-12-01T11:33:05.862Z,8.50
2018-12-01T11:35:34.335Z,8.13
2018-12-01T11:38:02.899Z,7.70
2018-12-01T11:40:31.401Z,7.50
2018-12-01T11:42:59.716Z,8.37
2018-12-01T11:45:28.074Z,7.40
2018-12-01T11:47:56.390Z,7.37
2018-12-01T11:50:24.802Z,6.97
2018-12-01T11:52:53.057Z,8.37
2018-12-01T11:55:22.324Z,8.33
2018-12-01T11:57:51.071Z,5.70
2018-12-01T12:00:23.593Z,7.83
2018-12-01T12:02:51.902Z,6.77
2018-12-01T12:05:20.254Z,9.67
2018-12-01T12:07:59.949Z,9.13
2018-12-01T12:10:28.312Z,6.50
2018-12-01T12:12:56.655Z,8.10
2018-12-01T12:15:25.804Z,8.10
2018-12-01T12:17:56.549Z,5.57
2018-12-01T12:20:24.961Z,7.50
2018-12-01T12:22:53.321Z,7.53
2018-12-01T12:25:21.616Z,5.87
2018-12-01T12:27:49.995Z,4.90
2018-12-01T12:30:19.245Z,7.53
2018-12-01T12:32:47.931Z,8.37
2018-12-01T12:35:17.512Z,6.47
2018-12-01T12:37:45.898Z,4.13
2018-12-01T12:40:17.355Z,8.07
2018-12-01T12:42:45.815Z,6.80
2018-12-01T12:45:14.566Z,7.03
2018-12-01T12:47:42.935Z,8.57
2018-12-01T12:50:12.630Z,9.47
2018-12-01T12:52:40.988Z,8.33
2018-12-01T12:55:12.989Z,6.47
2018-12-01T12:57:41.157Z,8.00
2018-12-01T13:00:10.918Z,7.67
2018-12-01T13:02:39.136Z,8.27
2018-12-01T13:05:10.085Z,7.97
2018-12-01T13:07:38.634Z,8.67
2018-12-01T13:10:15.045Z,8.07
2018-12-01T13:12:43.362Z,4.87
2018-12-01T13:15:12.729Z,7.27
2018-12-01T13:17:41.461Z,8.37
2018-12-01T13:20:14.047Z,8.37
2018-12-01T13:22:42.265Z,8.27
2018-12-01T13:25:12.386Z,6.50
2018-12-01T13:27:42.909Z,6.13
2018-12-01T13:30:19.885Z,7.97
2018-12-01T13:32:48.165Z,4.43
2018-12-01T13:35:16.373Z,8.43
2018-12-01T13:37:45.818Z,7.10
2018-12-01T13:40:15.725Z,4.90
2018-12-01T13:42:44.798Z,7.03
2018-12-01T13:45:14.881Z,10.07
2018-12-01T13:47:43.110Z,10.50
2018-12-01T13:50:17.520Z,8.47
2018-12-01T13:52:48.357Z,11.40
2018-12-01T13:55:16.770Z,9.67
2018-12-01T13:57:44.922Z,12.93
2018-12-01T14:00:14.331Z,7.27
2018-12-01T14:02:42.525Z,6.40
2018-12-01T14:05:11.486Z,8.03
2018-12-01T14:07:39.674Z,6.80
2018-12-01T14:10:12.219Z,7.53
2018-12-01T14:12:40.405Z,8.30
2018-12-01T14:15:11.447Z,5.40
2018-12-01T14:17:40.337Z,8.83
2018-12-01T14:20:09.833Z,8.70
2018-12-01T14:22:38.081Z,9.53
2018-12-01T14:25:08.598Z,6.30
2018-12-01T14:27:36.887Z,7.77
2018-12-01T14:30:08.236Z,7.87
2018-12-01T14:32:41.127Z,6.57
2018-12-01T14:35:15.851Z,6.40
2018-12-01T14:37:44.872Z,8.03
2018-12-01T14:40:13.522Z,7.63
2018-12-01T14:42:42.327Z,6.37
2018-12-01T14:45:13.581Z,7.57
2018-12-01T14:47:41.809Z,6.13
2018-12-01T14:50:11.134Z,7.50
2018-12-01T14:52:39.806Z,6.33
2018-12-01T14:55:09.420Z,6.87
2018-12-01T14:57:37.603Z,6.97
2018-12-01T15:00:10.688Z,6.27
2018-12-01T15:02:38.865Z,7.03
2018-12-01T15:05:07.723Z,9.17
2018-12-01T15:07:35.929Z,6.03
2018-12-01T15:10:04.654Z,10.53
2018-12-01T15:12:33.112Z,8.20
2018-12-01T15:15:01.529Z,8.40
2018-12-01T15:17:29.989Z,8.40
2018-12-01T15:19:58.137Z,12.43
2018-12-01T15:22:26.303Z,12.63
2018-12-01T15:24:55.145Z,9.93
2018-12-01T15:27:23.304Z,6.87
2018-12-01T15:29:51.809Z,7.13
2018-12-01T15:32:19.985Z,6.13
2018-12-01T15:34:48.183Z,6.87
2018-12-01T15:37:16.665Z,8.20
2018-12-01T15:39:45.044Z,7.60
2018-12-01T15:42:13.200Z,8.10
2018-12-01T15:44:41.771Z,11.10
2018-12-01T15:47:09.938Z,10.20
2018-12-01T15:49:38.091Z,9.47
2018-12-01T15:52:06.282Z,9.67
2018-12-01T15:54:34.703Z,10.03
2018-12-01T15:57:02.881Z,8.43
2018-12-01T15:59:31.557Z,11.77
2018-12-01T16:01:59.720Z,5.23
2018-12-01T16:04:27.880Z,4.60
2018-12-01T16:06:56.028Z,5.17
2018-12-01T16:12:17.805Z,5.37
2018-12-01T16:14:45.958Z,5.57
2018-12-01T16:17:14.110Z,6.77
2018-12-01T16:19:42.293Z,5.80
2018-12-01T16:22:10.452Z,7.00
2018-12-01T16:24:38.886Z,6.73
2018-12-01T16:27:07.402Z,4.63
2018-12-01T16:29:35.545Z,7.27
2018-12-01T16:32:03.698Z,6.40
2018-12-01T16:34:31.873Z,5.13
2018-12-01T16:37:00.133Z,9.00
2018-12-01T16:39:28.329Z,6.50
2018-12-01T16:41:56.789Z,9.93
2018-12-01T16:44:25.394Z,8.70
2018-12-01T16:46:53.714Z,10.77
2018-12-01T16:49:21.931Z,7.07
2018-12-01T16:51:50.232Z,8.37
2018-12-01T16:54:18.482Z,9.93
2018-12-01T16:56:46.793Z,8.53
2018-12-01T16:59:15.036Z,9.03
2018-12-01T17:01:43.579Z,6.63
2018-12-01T17:04:11.873Z,10.37
2018-12-01T17:06:40.197Z,8.87
2018-12-01T17:09:08.960Z,7.50
2018-12-01T17:11:38.368Z,6.33
2018-12-01T17:14:06.910Z,6.13
2018-12-01T17:16:36.612Z,7.30
2018-12-01T17:19:06.910Z,10.83
2018-12-01T17:21:37.373Z,6.80
2018-12-01T17:24:07.292Z,11.03
2018-12-01T17:26:38.107Z,9.80
2018-12-01T17:29:08.004Z,8.87
2018-12-01T17:31:36.335Z,9.63
2018-12-01T17:34:04.585Z,8.83
2018-12-01T17:36:33.203Z,9.37
2018-12-01T17:39:01.444Z,7.67
2018-12-01T17:41:30.710Z,9.37
2018-12-01T17:44:02.177Z,9.33
2018-12-01T17:46:30.473Z,8.93
2018-12-01T17:48:58.749Z,11.37
2018-12-01T17:51:27.124Z,13.13
2018-12-01T17:53:59.469Z,7.53
2018-12-01T17:56:27.751Z,8.73
2018-12-01T17:58:56.080Z,8.00
2018-12-01T18:01:24.597Z,10.03
2018-12-01T18:03:53.257Z,9.33
2018-12-01T18:06:21.785Z,9.17
2018-12-01T18:08:50.209Z,6.27
2018-12-01T18:11:18.622Z,8.07
2018-12-01T18:13:47.207Z,9.30
2018-12-01T18:16:15.738Z,7.70
2018-12-01T18:18:44.103Z,8.27
2018-12-01T18:21:12.706Z,8.47
2018-12-01T18:23:41.060Z,11.90
2018-12-01T18:26:09.573Z,8.00
2018-12-01T18:28:40.071Z,8.80
2018-12-01T18:31:24.923Z,7.03
2018-12-01T18:33:57.234Z,8.23
2018-12-01T18:36:25.918Z,6.57
2018-12-01T18:38:54.229Z,8.60
2018-12-01T18:41:22.914Z,7.40
2018-12-01T18:43:51.194Z,8.03
2018-12-01T18:46:19.813Z,8.53
2018-12-01T18:48:48.286Z,6.63
2018-12-01T18:51:16.558Z,7.20
2018-12-01T18:53:45.035Z,7.60
2018-12-01T18:56:13.332Z,5.93
2018-12-01T18:58:42.602Z,9.10
2018-12-01T19:01:11.803Z,10.33
2018-12-01T19:03:40.317Z,6.93
2018-12-01T19:06:09.634Z,9.87
2018-12-01T19:08:38.313Z,7.03
2018-12-01T19:11:07.606Z,8.33
2018-12-01T19:13:36.492Z,7.47
2018-12-01T19:16:05.004Z,6.97
2018-12-01T19:18:33.931Z,6.73
2018-12-01T19:21:02.588Z,8.87
2018-12-01T19:23:31.936Z,7.10
2018-12-01T19:26:00.631Z,5.73
2018-12-01T19:28:29.132Z,5.00
2018-12-01T19:30:57.549Z,7.60
2018-12-01T19:33:26.072Z,8.60
2018-12-01T19:35:55.369Z,8.33
2018-12-01T19:38:28.845Z,5.00
2018-12-01T19:42:28.890Z,6.17
2018-12-01T19:44:57.859Z,7.47
2018-12-01T19:47:26.496Z,9.33
2018-12-01T19:49:55.370Z,6.97
2018-12-01T19:52:23.797Z,5.23
2018-12-01T19:54:52.712Z,7.83
2018-12-01T19:57:21.120Z,6.37
2018-12-01T19:59:49.970Z,7.40
2018-12-01T20:02:18.402Z,6.03
2018-12-01T20:04:46.880Z,7.00
2018-12-01T20:07:15.319Z,6.57
2018-12-01T20:09:43.624Z,6.47
2018-12-01T20:12:12.475Z,6.83
2018-12-01T20:14:41.277Z,6.53
2018-12-01T20:17:11.064Z,5.93
2018-12-01T20:19:40.100Z,9.03
2018-12-01T20:22:09.059Z,7.33
2018-12-01T20:24:37.891Z,10.50
2018-12-01T20:27:06.902Z,5.77
2018-12-01T20:29:35.875Z,5.97
2018-12-01T20:33:07.892Z,6.40
2018-12-01T20:35:47.354Z,5.77
2018-12-01T20:38:19.542Z,5.67
2018-12-01T20:40:48.208Z,5.70
2018-12-01T20:43:16.692Z,5.80
2018-12-01T20:45:45.148Z,8.40
2018-12-01T20:48:14.009Z,8.63
2018-12-01T20:50:43.121Z,5.77
2018-12-01T20:53:13.441Z,6.93
2018-12-01T20:55:45.441Z,6.17
2018-12-01T20:58:14.509Z,7.97
2018-12-01T21:00:42.945Z,6.50
2018-12-01T21:03:11.621Z,8.13
2018-12-01T21:05:40.111Z,7.37
2018-12-01T21:08:09.028Z,5.97
2018-12-01T21:10:43.141Z,6.97
2018-12-01T21:13:11.485Z,7.57
2018-12-01T21:15:39.874Z,8.27
2018-12-01T21:18:08.244Z,8.00
2018-12-01T21:20:36.598Z,7.00
2018-12-01T21:23:05.442Z,6.60
2018-12-01T21:25:33.757Z,8.83
2018-12-01T21:28:02.730Z,6.87
2018-12-01T21:30:31.570Z,7.70
2018-12-01T21:33:07.663Z,5.70
2018-12-01T21:35:36.149Z,7.40
2018-12-01T21:38:05.011Z,8.10
2018-12-01T21:40:33.521Z,11.20
2018-12-01T21:43:01.738Z,7.47
2018-12-01T21:45:29.995Z,7.23
2018-12-01T21:47:58.476Z,6.63
2018-12-01T21:50:27.001Z,7.33
2018-12-01T21:52:55.802Z,5.53
2018-12-01T21:55:24.702Z,7.70
2018-12-01T21:57:53.881Z,6.50
2018-12-01T22:00:29.418Z,7.80
2018-12-01T22:03:01.314Z,6.10
2018-12-01T22:05:44.029Z,8.33
2018-12-01T22:08:14.155Z,6.27
2018-12-01T22:10:43.774Z,8.77
2018-12-01T22:13:12.062Z,9.23
2018-12-01T22:15:40.573Z,6.43
2018-12-01T22:18:08.888Z,7.40
2018-12-01T22:20:37.126Z,6.67
2018-12-01T22:32:13.521Z,5.83
2018-12-01T22:34:41.726Z,7.57
2018-12-01T22:37:09.890Z,6.90
2018-12-01T22:39:38.117Z,7.53
2018-12-01T22:42:06.462Z,5.93
2018-12-01T22:44:34.762Z,4.80
2018-12-01T22:47:03.062Z,5.37
2018-12-01T22:49:31.436Z,6.77
2018-12-01T22:51:59.792Z,6.97
2018-12-01T22:54:28.131Z,5.47
2018-12-01T22:56:56.452Z,5.80
2018-12-01T22:59:24.751Z,3.97
2018-12-01T23:01:53.150Z,3.80
2018-12-01T23:04:21.449Z,4.30
2018-12-01T23:06:49.762Z,5.93
2018-12-01T23:09:18.102Z,3.73
2018-12-01T23:11:46.399Z,4.97
2018-12-01T23:14:14.708Z,5.10
2018-12-01T23:16:43.014Z,4.80
2018-12-01T23:19:11.405Z,5.53
2018-12-01T23:21:39.810Z,3.60
2018-12-01T23:24:08.227Z,6.00
2018-12-01T23:26:36.546Z,6.00
2018-12-01T23:29:04.955Z,4.50
2018-12-01T23:31:33.281Z,3.43
2018-12-01T23:34:01.599Z,4.20
2018-12-01T23:36:29.901Z,3.23
2018-12-01T23:38:58.245Z,3.90
2018-12-01T23:41:26.584Z,3.13
2018-12-01T23:43:54.911Z,3.63
2018-12-01T23:46:23.217Z,5.23
2018-12-01T23:48:51.578Z,3.77
2018-12-01T23:51:20.006Z,3.87
2018-12-01T23:53:48.339Z,2.77
2018-12-01T23:56:16.666Z,5.13
2018-12-01T23:58:45.129Z,3.30
